createdAt,value
2023-02-02T00:00:35.760Z,7
2023-02-02T00:01:35.841Z,6.95
2023-02-02T00:02:35.877Z,7.04
2023-02-02T00:03:35.838Z,6.97
2023-02-02T00:04:35.818Z,7.03
2023-02-02T00:05:35.820Z,6.89
2023-02-02T00:06:35.790Z,6.96
2023-02-02T00:07:38.674Z,6.92
2023-02-02T00:08:35.834Z,6.95
2023-02-02T00:09:35.829Z,6.93
2023-02-02T00:10:35.809Z,6.92
2023-02-02T00:11:35.798Z,6.92
2023-02-02T00:12:38.611Z,6.92
2023-02-02T00:13:35.772Z,6.92
2023-02-02T00:14:35.808Z,7.03
2023-02-02T00:15:35.786Z,6.92
2023-02-02T00:16:36.075Z,6.92
2023-02-02T00:17:35.781Z,6.87
2023-02-02T00:18:35.795Z,6.96
2023-02-02T00:19:35.862Z,6.85
2023-02-02T00:20:35.796Z,6.96
2023-02-02T00:21:35.826Z,6.89
2023-02-02T00:22:35.788Z,6.89
2023-02-02T00:23:38.653Z,6.92
2023-02-02T00:24:35.833Z,6.87
2023-02-02T00:25:35.845Z,6.87
2023-02-02T00:26:35.977Z,6.82
2023-02-02T00:27:35.789Z,6.9
2023-02-02T00:28:35.805Z,6.86
2023-02-02T00:29:35.839Z,6.96
2023-02-02T00:30:35.892Z,6.83
2023-02-02T00:31:35.937Z,6.8
2023-02-02T00:32:35.790Z,6.85
2023-02-02T00:33:35.794Z,6.8
2023-02-02T00:34:38.894Z,6.9
2023-02-02T00:35:35.820Z,6.92
2023-02-02T00:36:35.807Z,6.9
2023-02-02T00:37:35.817Z,6.93
2023-02-02T00:38:35.823Z,6.9
2023-02-02T00:39:35.866Z,6.92
2023-02-02T00:40:35.803Z,6.89
2023-02-02T00:41:35.799Z,6.86
2023-02-02T00:42:35.858Z,6.86
2023-02-02T00:43:35.808Z,6.82
2023-02-02T00:44:35.819Z,6.95
2023-02-02T00:45:38.930Z,6.92
2023-02-02T00:46:35.826Z,6.87
2023-02-02T00:47:35.891Z,6.9
2023-02-02T00:48:35.818Z,6.83
2023-02-02T00:49:35.849Z,6.8
2023-02-02T00:50:35.865Z,6.9
2023-02-02T00:51:36.856Z,6.78
2023-02-02T00:52:35.853Z,6.87
2023-02-02T00:53:35.869Z,6.7
2023-02-02T00:54:35.840Z,6.8
2023-02-02T00:55:35.867Z,6.74
2023-02-02T00:56:38.973Z,6.9
2023-02-02T00:57:35.859Z,6.83
2023-02-02T00:58:38.630Z,6.72
2023-02-02T00:59:35.832Z,6.8
2023-02-02T01:00:35.835Z,6.89
2023-02-02T01:01:35.856Z,6.83
2023-02-02T01:02:35.991Z,7.1
2023-02-02T01:03:35.843Z,6.74
2023-02-02T01:04:35.866Z,6.6
2023-02-02T01:05:36.038Z,6.39
2023-02-02T01:06:35.862Z,6.19
2023-02-02T01:07:38.697Z,6.17
2023-02-02T01:08:35.876Z,6.13
2023-02-02T01:09:35.853Z,6.05
2023-02-02T01:10:35.855Z,5.91
2023-02-02T01:11:35.898Z,5.81
2023-02-02T01:12:35.870Z,5.72
2023-02-02T01:13:35.867Z,5.62
2023-02-02T01:14:35.913Z,5.43
2023-02-02T01:15:35.874Z,5.44
2023-02-02T01:16:36.127Z,5.47
2023-02-02T01:17:35.851Z,5.34
2023-02-02T01:18:38.638Z,5.37
2023-02-02T01:19:35.851Z,5.33
2023-02-02T01:20:35.871Z,5.34
2023-02-02T01:21:35.869Z,5.1
2023-02-02T01:22:35.882Z,5.07
2023-02-02T01:23:35.919Z,5.02
2023-02-02T01:24:35.906Z,4.98
2023-02-02T01:25:35.899Z,4.89
2023-02-02T01:26:36.067Z,4.79
2023-02-02T01:27:35.917Z,4.83
2023-02-02T01:28:35.865Z,4.79
2023-02-02T01:29:38.722Z,4.7
2023-02-02T01:30:36.019Z,4.67
2023-02-02T01:31:35.943Z,4.52
2023-02-02T01:32:35.965Z,4.53
2023-02-02T01:33:35.888Z,4.46
2023-02-02T01:34:35.882Z,4.38
2023-02-02T01:35:35.913Z,4.34
2023-02-02T01:36:35.902Z,4.32
2023-02-02T01:37:35.876Z,4.21
2023-02-02T01:38:38.643Z,4.21
2023-02-02T01:39:37.719Z,4.25
2023-02-02T01:40:38.985Z,4.31
2023-02-02T01:41:35.922Z,4.24
2023-02-02T01:42:35.910Z,4.21
2023-02-02T01:43:36.898Z,4.16
2023-02-02T01:44:35.901Z,4.18
2023-02-02T01:45:36.445Z,4.02
2023-02-02T01:46:35.981Z,4.09
2023-02-02T01:47:36.001Z,4.14
2023-02-02T01:48:35.968Z,4.16
2023-02-02T01:49:38.931Z,4.1
2023-02-02T01:50:35.961Z,4.09
2023-02-02T01:51:38.950Z,4.07
2023-02-02T01:52:35.974Z,4.22
2023-02-02T01:53:35.933Z,4.06
2023-02-02T01:54:35.914Z,3.92
2023-02-02T01:55:35.992Z,3.86
2023-02-02T01:56:39.001Z,3.92
2023-02-02T01:57:35.924Z,4.02
2023-02-02T01:58:35.920Z,3.88
2023-02-02T01:59:36.051Z,3.78
2023-02-02T02:00:35.955Z,3.91
2023-02-02T02:01:35.984Z,3.91
2023-02-02T02:02:36.144Z,3.91
2023-02-02T02:03:35.946Z,3.86
2023-02-02T02:04:35.923Z,3.84
2023-02-02T02:05:36.021Z,3.77
2023-02-02T02:06:35.938Z,3.78
2023-02-02T02:07:35.936Z,3.74
2023-02-02T02:08:35.927Z,3.66
2023-02-02T02:09:35.948Z,3.66
2023-02-02T02:10:35.966Z,3.58
2023-02-02T02:11:35.949Z,3.55
2023-02-02T02:12:35.971Z,3.59
2023-02-02T02:13:35.946Z,3.63
2023-02-02T02:14:35.943Z,3.58
2023-02-02T02:15:35.990Z,3.64
2023-02-02T02:16:36.076Z,3.61
2023-02-02T02:17:35.939Z,3.7
2023-02-02T02:18:35.963Z,3.64
2023-02-02T02:19:35.955Z,3.76
2023-02-02T02:20:35.982Z,3.68
2023-02-02T02:21:35.969Z,3.67
2023-02-02T02:22:35.947Z,3.68
2023-02-02T02:23:38.775Z,3.7
2023-02-02T02:24:35.955Z,3.68
2023-02-02T02:25:36.010Z,3.76
2023-02-02T02:26:36.213Z,3.81
2023-02-02T02:27:35.997Z,3.77
2023-02-02T02:28:36.008Z,3.77
2023-02-02T02:29:35.971Z,3.85
2023-02-02T02:30:36.285Z,3.77
2023-02-02T02:31:36.380Z,3.84
2023-02-02T02:32:35.975Z,3.81
2023-02-02T02:33:35.997Z,3.77
2023-02-02T02:34:39.062Z,3.74
2023-02-02T02:35:35.994Z,3.77
2023-02-02T02:36:35.990Z,3.77
2023-02-02T02:37:35.987Z,3.74
2023-02-02T02:38:35.978Z,3.74
2023-02-02T02:39:38.762Z,3.74
2023-02-02T02:40:36.023Z,3.77
2023-02-02T02:41:36.014Z,3.63
2023-02-02T02:42:35.973Z,3.66
2023-02-02T02:43:35.970Z,3.73
2023-02-02T02:44:36.020Z,3.77
2023-02-02T02:45:36.182Z,3.7
2023-02-02T02:46:35.988Z,3.58
2023-02-02T02:47:35.901Z,3.66
2023-02-02T02:48:36.040Z,3.74
2023-02-02T02:49:36.006Z,3.59
2023-02-02T02:50:38.789Z,3.61
2023-02-02T02:51:36.009Z,3.49
2023-02-02T02:52:36.007Z,3.52
2023-02-02T02:53:36.009Z,3.52
2023-02-02T02:54:36.088Z,3.46
2023-02-02T02:55:36.073Z,3.59
2023-02-02T02:56:36.038Z,3.55
2023-02-02T02:57:36.038Z,3.61
2023-02-02T02:58:36.020Z,3.55
2023-02-02T02:59:36.023Z,3.64
2023-02-02T03:00:36.104Z,3.56
2023-02-02T03:01:36.460Z,3.55
2023-02-02T03:02:36.219Z,3.61
2023-02-02T03:03:36.036Z,3.59
2023-02-02T03:04:36.015Z,3.48
2023-02-02T03:05:37.124Z,3.49
2023-02-02T03:06:36.135Z,3.53
2023-02-02T03:07:36.032Z,3.48
2023-02-02T03:08:36.029Z,3.53
2023-02-02T03:09:36.038Z,3.49
2023-02-02T03:10:36.030Z,3.46
2023-02-02T03:11:36.040Z,3.55
2023-02-02T03:12:38.893Z,3.59
2023-02-02T03:13:36.140Z,3.64
2023-02-02T03:14:36.036Z,3.55
2023-02-02T03:15:36.206Z,3.58
2023-02-02T03:16:36.065Z,3.49
2023-02-02T03:17:36.104Z,3.53
2023-02-02T03:18:36.051Z,3.36
2023-02-02T03:19:36.083Z,3.46
2023-02-02T03:20:36.046Z,3.5
2023-02-02T03:21:36.057Z,3.55
2023-02-02T03:22:36.086Z,3.49
2023-02-02T03:23:39.093Z,3.52
2023-02-02T03:24:36.107Z,3.46
2023-02-02T03:25:36.100Z,3.3
2023-02-02T03:26:36.197Z,3.34
2023-02-02T03:27:36.060Z,3.52
2023-02-02T03:28:36.058Z,3.5
2023-02-02T03:29:36.041Z,3.48
2023-02-02T03:30:36.209Z,3.5
2023-02-02T03:31:36.432Z,3.55
2023-02-02T03:32:36.076Z,3.58
2023-02-02T03:33:36.073Z,3.55
2023-02-02T03:34:39.094Z,3.61
2023-02-02T03:35:36.099Z,3.59
2023-02-02T03:36:36.067Z,3.5
2023-02-02T03:37:36.070Z,3.53
2023-02-02T03:38:36.106Z,3.55
2023-02-02T03:39:36.091Z,3.61
2023-02-02T03:40:36.090Z,3.63
2023-02-02T03:41:36.096Z,3.67
2023-02-02T03:42:36.104Z,3.67
2023-02-02T03:43:36.074Z,3.63
2023-02-02T03:44:36.078Z,3.63
2023-02-02T03:45:39.153Z,3.66
2023-02-02T03:46:36.305Z,3.67
2023-02-02T03:47:36.100Z,3.63
2023-02-02T03:48:36.101Z,3.68
2023-02-02T03:49:36.098Z,3.74
2023-02-02T03:50:36.101Z,3.68
2023-02-02T03:51:36.107Z,3.68
2023-02-02T03:52:36.114Z,3.68
2023-02-02T03:53:36.123Z,3.77
2023-02-02T03:54:36.151Z,3.86
2023-02-02T03:55:36.105Z,3.81
2023-02-02T03:56:38.996Z,3.82
2023-02-02T03:57:36.091Z,3.86
2023-02-02T03:58:36.130Z,3.81
2023-02-02T03:59:36.094Z,3.86
2023-02-02T04:00:36.110Z,3.88
2023-02-02T04:01:36.221Z,3.84
2023-02-02T04:02:36.222Z,3.77
2023-02-02T04:03:36.134Z,3.81
2023-02-02T04:04:36.151Z,3.89
2023-02-02T04:05:37.151Z,3.82
2023-02-02T04:06:36.171Z,3.73
2023-02-02T04:07:38.890Z,3.85
2023-02-02T04:08:36.170Z,3.85
2023-02-02T04:09:36.119Z,3.84
2023-02-02T04:10:36.146Z,3.82
2023-02-02T04:11:36.158Z,3.71
2023-02-02T04:12:38.916Z,3.77
2023-02-02T04:13:36.127Z,3.91
2023-02-02T04:14:36.142Z,3.85
2023-02-02T04:15:36.137Z,3.84
2023-02-02T04:16:36.430Z,3.85
2023-02-02T04:17:36.148Z,3.86
2023-02-02T04:18:39.018Z,3.81
2023-02-02T04:19:36.145Z,3.96
2023-02-02T04:20:36.179Z,3.92
2023-02-02T04:21:36.186Z,3.84
2023-02-02T04:22:36.163Z,3.86
2023-02-02T04:23:38.962Z,3.92
2023-02-02T04:24:38.027Z,3.85
2023-02-02T04:25:36.158Z,3.88
2023-02-02T04:26:36.402Z,3.95
2023-02-02T04:27:36.160Z,3.89
2023-02-02T04:28:36.183Z,3.88
2023-02-02T04:29:36.151Z,3.94
2023-02-02T04:30:36.323Z,3.99
2023-02-02T04:31:36.312Z,3.91
2023-02-02T04:32:36.161Z,3.96
2023-02-02T04:33:36.164Z,4.09
2023-02-02T04:34:36.160Z,4.04
2023-02-02T04:35:36.151Z,4.03
2023-02-02T04:36:36.219Z,4.12
2023-02-02T04:37:36.197Z,4.1
2023-02-02T04:38:36.199Z,4
2023-02-02T04:39:36.213Z,4.04
2023-02-02T04:40:36.175Z,3.82
2023-02-02T04:41:36.214Z,3.94
2023-02-02T04:42:36.204Z,3.91
2023-02-02T04:43:36.195Z,3.78
2023-02-02T04:44:36.254Z,3.76
2023-02-02T04:45:36.350Z,3.71
2023-02-02T04:46:36.229Z,3.78
2023-02-02T04:47:36.205Z,3.74
2023-02-02T04:48:36.180Z,3.81
2023-02-02T04:49:36.213Z,3.82
2023-02-02T04:50:39.212Z,3.81
2023-02-02T04:51:36.220Z,3.82
2023-02-02T04:52:36.222Z,3.86
2023-02-02T04:53:36.206Z,3.74
2023-02-02T04:54:36.216Z,3.77
2023-02-02T04:55:36.246Z,3.77
2023-02-02T04:56:36.280Z,3.74
2023-02-02T04:57:36.028Z,3.82
2023-02-02T04:58:36.266Z,3.84
2023-02-02T04:59:36.209Z,3.71
2023-02-02T05:00:36.215Z,3.86
2023-02-02T05:01:39.129Z,3.81
2023-02-02T05:02:36.332Z,3.88
2023-02-02T05:03:36.244Z,3.82
2023-02-02T05:04:36.493Z,3.77
2023-02-02T05:05:36.221Z,3.86
2023-02-02T05:06:39.273Z,3.81
2023-02-02T05:07:36.226Z,3.86
2023-02-02T05:08:36.248Z,3.92
2023-02-02T05:09:36.233Z,3.82
2023-02-02T05:10:36.282Z,3.84
2023-02-02T05:11:36.261Z,3.95
2023-02-02T05:13:36.225Z,3.78
2023-02-02T05:14:36.275Z,3.89
2023-02-02T05:15:36.264Z,3.88
2023-02-02T05:16:36.477Z,3.88
2023-02-02T05:17:39.303Z,3.88
2023-02-02T05:18:36.333Z,3.88
2023-02-02T05:19:36.246Z,3.84
2023-02-02T05:20:36.215Z,3.94
2023-02-02T05:21:36.256Z,3.85
2023-02-02T05:22:36.258Z,3.94
2023-02-02T05:23:36.240Z,3.88
2023-02-02T05:24:36.284Z,3.92
2023-02-02T05:25:36.239Z,3.89
2023-02-02T05:26:36.409Z,4.02
2023-02-02T05:27:36.322Z,3.89
2023-02-02T05:28:39.047Z,3.95
2023-02-02T05:29:36.259Z,3.96
2023-02-02T05:30:38.406Z,3.85
2023-02-02T05:31:36.356Z,3.88
2023-02-02T05:32:36.275Z,3.76
2023-02-02T05:33:36.254Z,3.76
2023-02-02T05:34:36.614Z,3.84
2023-02-02T05:35:37.268Z,3.86
2023-02-02T05:36:36.268Z,3.91
2023-02-02T05:37:36.366Z,3.89
2023-02-02T05:38:36.278Z,3.82
2023-02-02T05:39:39.087Z,3.86
2023-02-02T05:40:36.275Z,3.78
2023-02-02T05:41:36.312Z,3.91
2023-02-02T05:42:36.290Z,3.86
2023-02-02T05:43:36.384Z,3.86
2023-02-02T05:44:36.400Z,3.94
2023-02-02T05:45:36.469Z,3.88
2023-02-02T05:46:36.372Z,3.85
2023-02-02T05:47:36.311Z,3.82
2023-02-02T05:48:36.285Z,3.85
2023-02-02T05:49:36.286Z,3.84
2023-02-02T05:50:39.426Z,3.89
2023-02-02T05:51:36.321Z,3.88
2023-02-02T05:52:36.284Z,3.86
2023-02-02T05:53:36.303Z,3.78
2023-02-02T05:54:36.325Z,3.81
2023-02-02T05:55:37.337Z,3.91
2023-02-02T05:56:36.324Z,3.85
2023-02-02T05:57:36.313Z,3.84
2023-02-02T05:58:36.320Z,3.82
2023-02-02T05:59:36.315Z,3.86
2023-02-02T06:00:36.302Z,3.94
2023-02-02T06:01:39.448Z,3.86
2023-02-02T06:02:36.330Z,3.81
2023-02-02T06:03:36.771Z,3.77
2023-02-02T06:04:36.319Z,3.91
2023-02-02T06:05:36.324Z,3.84
2023-02-02T06:06:36.337Z,3.94
2023-02-02T06:07:36.329Z,3.78
2023-02-02T06:08:36.362Z,3.88
2023-02-02T06:09:37.346Z,3.78
2023-02-02T06:10:36.411Z,3.89
2023-02-02T06:11:36.325Z,3.81
2023-02-02T06:12:39.315Z,3.81
2023-02-02T06:13:36.316Z,3.89
2023-02-02T06:14:36.335Z,3.78
2023-02-02T06:15:39.387Z,3.91
2023-02-02T06:16:36.399Z,3.78
2023-02-02T06:17:36.343Z,3.78
2023-02-02T06:18:36.363Z,3.74
2023-02-02T06:19:36.345Z,3.89
2023-02-02T06:20:36.335Z,3.84
2023-02-02T06:21:36.381Z,3.85
2023-02-02T06:22:36.330Z,3.76
2023-02-02T06:23:39.389Z,3.89
2023-02-02T06:24:36.328Z,3.78
2023-02-02T06:25:36.365Z,3.78
2023-02-02T06:26:36.551Z,3.82
2023-02-02T06:27:36.420Z,3.78
2023-02-02T06:28:36.364Z,3.84
2023-02-02T06:29:36.356Z,3.88
2023-02-02T06:30:36.427Z,3.89
2023-02-02T06:31:37.075Z,3.91
2023-02-02T06:32:36.371Z,3.77
2023-02-02T06:33:36.379Z,3.94
2023-02-02T06:34:39.189Z,3.92
2023-02-02T06:35:36.388Z,3.92
2023-02-02T06:36:36.369Z,3.89
2023-02-02T06:37:36.395Z,3.89
2023-02-02T06:38:36.386Z,3.92
2023-02-02T06:39:39.222Z,3.95
2023-02-02T06:40:36.360Z,3.89
2023-02-02T06:41:36.423Z,3.86
2023-02-02T06:42:36.392Z,3.94
2023-02-02T06:43:36.419Z,3.85
2023-02-02T06:44:36.357Z,3.82
2023-02-02T06:45:39.497Z,3.91
2023-02-02T06:46:36.620Z,3.86
2023-02-02T06:47:36.414Z,3.85
2023-02-02T06:48:36.405Z,3.78
2023-02-02T06:49:36.421Z,3.88
2023-02-02T06:50:39.468Z,3.89
2023-02-02T06:51:36.392Z,4.03
2023-02-02T06:52:36.414Z,3.96
2023-02-02T06:53:36.418Z,3.89
2023-02-02T06:54:36.388Z,3.89
2023-02-02T06:55:36.405Z,3.96
2023-02-02T06:56:36.403Z,4.04
2023-02-02T06:57:36.422Z,4.07
2023-02-02T06:58:36.401Z,4.02
2023-02-02T06:59:36.421Z,4.09
2023-02-02T07:00:36.379Z,4.14
2023-02-02T07:01:36.585Z,4.12
2023-02-02T07:02:36.565Z,4.13
2023-02-02T07:03:36.463Z,4.14
2023-02-02T07:04:36.399Z,4.07
2023-02-02T07:05:36.836Z,4.18
2023-02-02T07:06:36.455Z,4.16
2023-02-02T07:07:36.460Z,4.09
2023-02-02T07:08:36.425Z,4.09
2023-02-02T07:09:36.400Z,4.24
2023-02-02T07:11:23.418Z,4.09
2023-02-02T07:11:47.551Z,4.24
2023-02-02T07:12:36.536Z,4.24
2023-02-02T07:13:36.411Z,4.24
2023-02-02T07:14:36.458Z,4.18
2023-02-02T07:15:39.361Z,4.13
2023-02-02T07:16:36.421Z,4.22
2023-02-02T07:17:39.467Z,4.22
2023-02-02T07:18:36.451Z,4.24
2023-02-02T07:19:36.620Z,4.12
2023-02-02T07:20:36.455Z,4.18
2023-02-02T07:21:36.675Z,4.24
2023-02-02T07:22:36.451Z,4.25
2023-02-02T07:23:36.437Z,4.34
2023-02-02T07:24:36.421Z,4.34
2023-02-02T07:25:36.507Z,4.3
2023-02-02T07:26:36.673Z,4.39
2023-02-02T07:27:36.451Z,4.39
2023-02-02T07:28:39.205Z,4.28
2023-02-02T07:29:36.433Z,4.43
2023-02-02T07:30:36.632Z,4.4
2023-02-02T07:31:40.205Z,4.32
2023-02-02T07:32:36.489Z,4.38
2023-02-02T07:33:39.455Z,4.34
2023-02-02T07:34:36.452Z,4.4
2023-02-02T07:35:36.497Z,4.4
2023-02-02T07:36:36.483Z,4.45
2023-02-02T07:37:37.514Z,4.43
2023-02-02T07:38:36.488Z,4.52
2023-02-02T07:39:36.525Z,4.5
2023-02-02T07:40:36.477Z,4.49
2023-02-02T07:41:36.480Z,4.53
2023-02-02T07:42:36.517Z,4.49
2023-02-02T07:43:36.304Z,4.58
2023-02-02T07:44:39.211Z,4.57
2023-02-02T07:45:36.618Z,4.58
2023-02-02T07:46:37.743Z,4.61
2023-02-02T07:47:36.524Z,4.63
2023-02-02T07:48:36.477Z,4.53
2023-02-02T07:49:36.493Z,4.61
2023-02-02T07:50:36.479Z,4.66
2023-02-02T07:51:38.107Z,4.64
2023-02-02T07:52:36.518Z,4.74
2023-02-02T07:53:36.528Z,4.71
2023-02-02T07:54:36.524Z,4.6
2023-02-02T07:55:39.520Z,4.68
2023-02-02T07:56:36.477Z,4.64
2023-02-02T07:57:36.521Z,4.67
2023-02-02T07:58:36.483Z,4.75
2023-02-02T07:59:37.154Z,4.61
2023-02-02T08:00:36.732Z,4.66
2023-02-02T08:01:36.642Z,4.64
2023-02-02T08:02:36.652Z,4.6
2023-02-02T08:03:36.581Z,4.76
2023-02-02T08:04:36.506Z,4.67
2023-02-02T08:05:36.512Z,4.78
2023-02-02T08:06:39.645Z,4.75
2023-02-02T08:07:36.521Z,4.84
2023-02-02T08:08:36.512Z,4.71
2023-02-02T08:09:36.540Z,4.7
2023-02-02T08:10:36.577Z,4.78
2023-02-02T08:11:36.557Z,4.84
2023-02-02T08:12:36.552Z,4.76
2023-02-02T08:13:36.526Z,4.75
2023-02-02T08:14:36.371Z,4.76
2023-02-02T08:15:36.380Z,4.76
2023-02-02T08:16:36.866Z,4.79
2023-02-02T08:17:39.155Z,4.7
2023-02-02T08:18:36.349Z,4.58
2023-02-02T08:19:36.555Z,4.7
2023-02-02T08:20:36.518Z,4.61
2023-02-02T08:21:36.561Z,4.82
2023-02-02T08:22:36.589Z,4.66
2023-02-02T08:23:36.248Z,4.63
2023-02-02T08:24:36.526Z,4.58
2023-02-02T08:25:36.636Z,4.7
2023-02-02T08:26:36.761Z,4.68
2023-02-02T08:27:38.583Z,4.71
2023-02-02T08:28:39.206Z,4.61
2023-02-02T08:29:36.566Z,4.58
2023-02-02T08:30:36.724Z,4.7
2023-02-02T08:31:36.735Z,4.63
2023-02-02T08:32:36.589Z,4.67
2023-02-02T08:33:36.250Z,4.7
2023-02-02T08:34:36.534Z,4.64
2023-02-02T08:35:36.590Z,4.68
2023-02-02T08:36:36.580Z,4.64
2023-02-02T08:37:36.580Z,4.6
2023-02-02T08:38:36.588Z,4.66
2023-02-02T08:39:39.730Z,4.68
2023-02-02T08:40:36.860Z,4.61
2023-02-02T08:41:36.587Z,4.66
2023-02-02T08:42:37.642Z,4.75
2023-02-02T08:43:37.181Z,4.66
2023-02-02T08:46:07.982Z,4.76
2023-02-02T08:46:20.735Z,4.74
2023-02-02T08:47:19.459Z,4.76
2023-02-02T08:48:19.353Z,4.7
2023-02-02T08:49:19.266Z,4.7
2023-02-02T08:50:19.259Z,4.74
2023-02-02T08:51:19.282Z,4.64
2023-02-02T08:52:19.278Z,4.6
2023-02-02T08:53:19.309Z,4.61
2023-02-02T08:54:22.074Z,4.68
2023-02-02T08:55:19.287Z,4.64
2023-02-02T08:56:19.319Z,4.53
2023-02-02T08:57:19.312Z,4.61
2023-02-02T08:58:19.350Z,4.67
2023-02-02T08:59:22.024Z,4.67
2023-02-02T09:00:19.279Z,4.63
2023-02-02T09:01:19.847Z,4.64
2023-02-02T09:02:19.457Z,4.64
2023-02-02T09:03:19.328Z,4.78
2023-02-02T09:04:19.352Z,4.6
2023-02-02T09:05:22.575Z,4.57
2023-02-02T09:06:19.336Z,4.58
2023-02-02T09:07:21.155Z,4.67
2023-02-02T09:08:19.518Z,4.68
2023-02-02T09:09:19.391Z,4.63
2023-02-02T09:10:22.510Z,4.61
2023-02-02T09:11:19.305Z,4.66
2023-02-02T09:12:19.298Z,4.57
2023-02-02T09:13:19.954Z,4.6
2023-02-02T09:14:19.336Z,4.58
2023-02-02T09:15:19.311Z,4.61
2023-02-02T09:16:22.330Z,4.6
2023-02-02T09:17:19.300Z,4.67
2023-02-02T09:18:19.342Z,4.68
2023-02-02T09:19:19.368Z,4.64
2023-02-02T09:20:21.496Z,4.67
2023-02-02T09:21:22.417Z,4.68
2023-02-02T09:22:19.304Z,4.63
2023-02-02T09:23:19.393Z,4.6
2023-02-02T09:24:19.323Z,4.63
2023-02-02T09:25:19.307Z,4.61
2023-02-02T09:26:19.627Z,4.57
2023-02-02T09:27:19.273Z,4.57
2023-02-02T09:28:19.365Z,4.61
2023-02-02T09:29:19.340Z,4.63
2023-02-02T09:30:19.408Z,4.71
2023-02-02T09:31:19.677Z,4.63
2023-02-02T09:32:22.387Z,4.71
2023-02-02T09:33:19.368Z,4.64
2023-02-02T09:34:19.398Z,4.67
2023-02-02T09:35:19.356Z,4.6
2023-02-02T09:36:19.363Z,4.6
2023-02-02T09:37:19.335Z,4.6
2023-02-02T09:38:19.422Z,4.6
2023-02-02T09:39:19.356Z,4.61
2023-02-02T09:40:19.470Z,4.64
2023-02-02T09:41:19.345Z,4.63
2023-02-02T09:42:19.351Z,4.64
2023-02-02T09:43:22.453Z,4.7
2023-02-02T09:44:19.335Z,4.6
2023-02-02T09:45:19.397Z,4.64
2023-02-02T09:46:19.524Z,4.67
2023-02-02T09:47:19.343Z,4.57
2023-02-02T09:48:19.361Z,4.53
2023-02-02T09:49:19.195Z,4.58
2023-02-02T09:50:19.423Z,4.6
2023-02-02T09:51:19.376Z,4.61
2023-02-02T09:52:19.457Z,4.57
2023-02-02T09:53:19.387Z,4.58
2023-02-02T09:54:22.482Z,4.66
2023-02-02T09:55:19.375Z,4.74
2023-02-02T09:56:19.383Z,4.63
2023-02-02T09:57:19.362Z,4.74
2023-02-02T09:58:19.425Z,4.58
2023-02-02T09:59:26.955Z,4.46
2023-02-02T10:00:19.464Z,4.53
2023-02-02T10:01:19.491Z,4.61
2023-02-02T10:02:19.370Z,4.68
2023-02-02T10:03:19.473Z,4.67
2023-02-02T10:04:19.546Z,4.57
2023-02-02T10:05:19.389Z,4.6
2023-02-02T10:06:19.373Z,4.58
2023-02-02T10:07:19.409Z,4.63
2023-02-02T10:08:36.641Z,4.58
2023-02-02T10:09:19.470Z,4.67
2023-02-02T10:10:21.729Z,4.67
2023-02-02T10:11:19.403Z,4.7
2023-02-02T10:12:19.408Z,4.64
2023-02-02T10:13:19.391Z,4.57
2023-02-02T10:14:19.452Z,4.64
2023-02-02T10:15:19.386Z,4.67
2023-02-02T10:16:19.736Z,4.74
2023-02-02T10:17:19.491Z,4.95
2023-02-02T10:18:19.386Z,5
2023-02-02T10:19:19.417Z,5.36
2023-02-02T10:20:19.450Z,5.33
2023-02-02T10:21:19.464Z,5.54
2023-02-02T10:22:19.451Z,5.59
2023-02-02T10:23:19.421Z,5.67
2023-02-02T10:24:19.401Z,5.79
2023-02-02T10:25:19.424Z,5.83
2023-02-02T10:26:19.600Z,5.91
2023-02-02T10:27:19.401Z,5.97
2023-02-02T10:28:19.428Z,6.06
2023-02-02T10:29:19.440Z,6.25
2023-02-02T10:30:19.430Z,6.26
2023-02-02T10:31:19.929Z,6.32
2023-02-02T10:32:19.441Z,6.41
2023-02-02T10:33:19.429Z,6.52
2023-02-02T10:34:19.437Z,6.53
2023-02-02T10:35:19.838Z,6.54
2023-02-02T10:36:19.431Z,6.53
2023-02-02T10:37:22.464Z,6.74
2023-02-02T10:38:19.462Z,6.77
2023-02-02T10:39:19.456Z,6.71
2023-02-02T10:40:19.555Z,6.8
2023-02-02T10:41:19.481Z,6.8
2023-02-02T10:42:19.491Z,6.82
2023-02-02T10:43:19.450Z,6.9
2023-02-02T10:44:19.489Z,6.92
2023-02-02T10:45:19.481Z,6.92
2023-02-02T10:46:19.707Z,6.97
2023-02-02T10:47:19.449Z,6.97
2023-02-02T10:48:22.312Z,7.05
2023-02-02T10:49:19.540Z,7.05
2023-02-02T10:50:19.720Z,7.05
2023-02-02T10:51:19.514Z,7
2023-02-02T10:52:19.479Z,7.1
2023-02-02T10:53:19.458Z,7.18
2023-02-02T10:54:19.494Z,7.18
2023-02-02T10:55:19.524Z,7.13
2023-02-02T10:56:19.462Z,7.18
2023-02-02T10:57:19.445Z,7.15
2023-02-02T10:58:19.483Z,7.22
2023-02-02T10:59:22.247Z,7.28
2023-02-02T11:00:22.386Z,7.32
2023-02-02T11:01:19.598Z,7.32
2023-02-02T11:02:25.689Z,7.43
2023-02-02T11:03:19.490Z,7.41
2023-02-02T11:04:19.526Z,7.43
2023-02-02T11:05:19.470Z,7.4
2023-02-02T11:06:19.460Z,7.46
2023-02-02T11:07:19.482Z,7.53
2023-02-02T11:08:19.482Z,7.58
2023-02-02T11:09:19.509Z,7.5
2023-02-02T11:10:22.365Z,7.5
2023-02-02T11:11:19.482Z,7.59
2023-02-02T11:12:19.785Z,7.58
2023-02-02T11:13:19.495Z,7.56
2023-02-02T11:14:19.522Z,7.74
2023-02-02T11:15:19.469Z,7.69
2023-02-02T11:16:19.734Z,7.66
2023-02-02T11:17:19.479Z,7.69
2023-02-02T11:18:19.489Z,7.7
2023-02-02T11:19:19.495Z,7.77
2023-02-02T11:20:19.584Z,7.74
2023-02-02T11:21:22.581Z,7.84
2023-02-02T11:22:19.472Z,7.84
2023-02-02T11:23:19.483Z,7.84
2023-02-02T11:24:19.560Z,7.9
2023-02-02T11:25:19.544Z,7.81
2023-02-02T11:26:19.905Z,7.85
2023-02-02T11:27:19.520Z,7.96
2023-02-02T11:28:19.587Z,7.81
2023-02-02T11:29:19.535Z,7.81
2023-02-02T11:30:19.579Z,7.88
2023-02-02T11:31:19.960Z,7.91
2023-02-02T11:32:22.538Z,7.83
2023-02-02T11:33:19.476Z,7.88
2023-02-02T11:34:22.660Z,7.88
2023-02-02T11:35:19.522Z,7.96
2023-02-02T11:36:19.611Z,7.9
2023-02-02T11:37:22.290Z,7.81
2023-02-02T11:38:19.505Z,7.95
2023-02-02T11:39:19.509Z,7.81
2023-02-02T11:40:19.520Z,7.87
2023-02-02T11:41:19.555Z,7.93
2023-02-02T11:42:19.520Z,7.99
2023-02-02T11:43:22.275Z,7.93
2023-02-02T11:44:19.552Z,7.98
2023-02-02T11:45:19.631Z,7.93
2023-02-02T11:46:19.821Z,7.99
2023-02-02T11:47:19.530Z,7.96
2023-02-02T11:48:22.524Z,8.01
2023-02-02T11:49:19.660Z,8.01
2023-02-02T11:50:19.556Z,7.99
2023-02-02T11:51:21.183Z,8.02
2023-02-02T11:52:19.547Z,8.03
2023-02-02T11:53:19.530Z,7.96
2023-02-02T11:54:19.541Z,7.96
2023-02-02T11:55:19.529Z,8.14
2023-02-02T11:56:19.619Z,8.02
2023-02-02T11:57:19.543Z,8.02
2023-02-02T11:58:19.548Z,8.06
2023-02-02T11:59:21.500Z,8.06
2023-02-02T12:00:19.551Z,8.06
2023-02-02T12:01:19.547Z,8.06
2023-02-02T12:02:19.800Z,8.05
2023-02-02T12:03:19.521Z,8.03
2023-02-02T12:04:19.784Z,8.02
2023-02-02T12:05:19.514Z,8.06
2023-02-02T12:06:19.577Z,7.99
2023-02-02T12:07:19.571Z,8.01
2023-02-02T12:08:19.586Z,8.13
2023-02-02T12:09:19.739Z,8.06
2023-02-02T12:10:22.620Z,8.11
2023-02-02T12:11:19.555Z,8.13
2023-02-02T12:12:19.559Z,8.03
2023-02-02T12:13:19.583Z,8.13
2023-02-02T12:14:19.583Z,8.09
2023-02-02T12:15:19.528Z,8.08
2023-02-02T12:16:19.831Z,8.09
2023-02-02T12:17:19.568Z,8.08
2023-02-02T12:18:19.672Z,8.16
2023-02-02T12:19:19.609Z,8.13
2023-02-02T12:20:19.568Z,8.11
2023-02-02T12:21:22.647Z,8.01
2023-02-02T12:22:19.866Z,8.09
2023-02-02T12:23:19.622Z,8.18
2023-02-02T12:24:19.643Z,8.11
2023-02-02T12:25:19.569Z,8.11
2023-02-02T12:26:19.917Z,8.13
2023-02-02T12:27:19.579Z,8.23
2023-02-02T12:28:19.568Z,8.16
2023-02-02T12:29:19.613Z,8.21
2023-02-02T12:30:19.583Z,8.2
2023-02-02T12:31:19.820Z,8.18
2023-02-02T12:32:19.587Z,8.13
2023-02-02T12:33:19.569Z,8.16
2023-02-02T12:34:19.666Z,8.27
2023-02-02T12:35:19.565Z,8.23
2023-02-02T12:36:19.767Z,8.27
2023-02-02T12:37:19.618Z,8.21
2023-02-02T12:38:19.603Z,8.17
2023-02-02T12:39:19.591Z,8.2
2023-02-02T12:40:19.599Z,8.2
2023-02-02T12:41:19.586Z,8.24
2023-02-02T12:42:19.592Z,8.14
2023-02-02T12:43:19.632Z,8.31
2023-02-02T12:44:19.659Z,8.2
2023-02-02T12:45:19.584Z,8.23
2023-02-02T12:46:20.010Z,8.23
2023-02-02T12:47:19.590Z,8.18
2023-02-02T12:48:19.602Z,8.31
2023-02-02T12:49:19.615Z,8.2
2023-02-02T12:50:19.628Z,8.23
2023-02-02T12:51:19.615Z,8.21
2023-02-02T12:52:19.581Z,8.32
2023-02-02T12:53:19.637Z,8.34
2023-02-02T12:54:55.715Z,8.23
2023-02-02T12:55:19.615Z,8.24
2023-02-02T12:56:19.866Z,8.28
2023-02-02T12:57:19.597Z,8.24
2023-02-02T12:58:19.840Z,8.32
2023-02-02T12:59:19.673Z,8.36
2023-02-02T13:00:19.628Z,8.18
2023-02-02T13:01:19.796Z,8.23
2023-02-02T13:02:19.767Z,8.23
2023-02-02T13:03:19.626Z,8.2
2023-02-02T13:04:22.428Z,8.18
2023-02-02T13:05:19.636Z,8.36
2023-02-02T13:06:19.653Z,8.31
2023-02-02T13:07:19.655Z,8.35
2023-02-02T13:08:19.658Z,8.32
2023-02-02T13:09:22.327Z,8.41
2023-02-02T13:10:19.695Z,8.38
2023-02-02T13:11:19.614Z,8.38
2023-02-02T13:12:19.677Z,8.45
2023-02-02T13:13:19.630Z,8.39
2023-02-02T13:14:19.617Z,8.38
2023-02-02T13:15:23.614Z,8.35
2023-02-02T13:16:22.738Z,8.45
2023-02-02T13:17:19.640Z,8.38
2023-02-02T13:18:19.621Z,8.31
2023-02-02T13:19:19.636Z,8.31
2023-02-02T13:20:19.681Z,8.35
2023-02-02T13:21:19.681Z,8.34
2023-02-02T13:22:19.665Z,8.27
2023-02-02T13:23:20.078Z,8.35